createdAt,value
2022-09-18T00:00:45.242Z,0.00
2022-09-18T00:01:45.220Z,0.00
2022-09-18T00:02:45.263Z,0.00
2022-09-18T00:03:45.181Z,0.00
2022-09-18T00:04:45.153Z,0.00
2022-09-18T00:05:45.155Z,0.00
2022-09-18T00:06:45.141Z,0.00
2022-09-18T00:07:45.106Z,0.00
2022-09-18T00:08:45.110Z,0.00
2022-09-18T00:09:45.092Z,0.00
2022-09-18T00:10:45.088Z,0.00
2022-09-18T00:11:45.105Z,0.00
2022-09-18T00:12:45.051Z,0.00
2022-09-18T00:13:45.156Z,0.00
2022-09-18T00:14:45.047Z,0.00
2022-09-18T00:15:45.059Z,0.00
2022-09-18T00:16:45.045Z,0.00
2022-09-18T00:17:45.043Z,0.00
2022-09-18T00:18:44.994Z,0.00
2022-09-18T00:19:44.990Z,0.00
2022-09-18T00:20:44.990Z,0.00
2022-09-18T00:21:44.992Z,0.00
2022-09-18T00:22:44.950Z,0.00
2022-09-18T00:23:44.948Z,0.00
2022-09-18T00:24:44.975Z,0.00
2022-09-18T00:25:44.926Z,0.00
2022-09-18T00:26:44.958Z,0.00
2022-09-18T00:27:44.907Z,0.00
2022-09-18T00:28:44.911Z,0.00
2022-09-18T00:29:44.968Z,0.00
2022-09-18T00:30:44.872Z,0.00
2022-09-18T00:31:44.930Z,0.00
2022-09-18T00:32:44.873Z,0.00
2022-09-18T00:33:44.828Z,0.00
2022-09-18T00:34:44.819Z,0.00
2022-09-18T00:35:44.825Z,0.00
2022-09-18T00:36:44.807Z,0.00
2022-09-18T00:37:44.824Z,0.00
2022-09-18T00:38:44.775Z,0.00
2022-09-18T00:39:44.760Z,0.00
2022-09-18T00:40:44.795Z,0.00
2022-09-18T00:41:44.754Z,0.00
2022-09-18T00:42:44.750Z,0.00
2022-09-18T00:43:44.742Z,0.00
2022-09-18T00:44:44.711Z,0.00
2022-09-18T00:45:44.779Z,0.00
2022-09-18T00:46:44.718Z,0.00
2022-09-18T00:47:44.727Z,0.00
2022-09-18T00:48:44.688Z,0.00
2022-09-18T00:49:44.657Z,0.00
2022-09-18T00:50:44.630Z,0.00
2022-09-18T00:51:44.641Z,0.00
2022-09-18T00:52:44.680Z,0.00
2022-09-18T00:53:44.625Z,0.00
2022-09-18T00:54:44.776Z,0.00
2022-09-18T00:55:44.592Z,0.00
2022-09-18T00:56:44.572Z,0.00
2022-09-18T00:57:44.574Z,0.00
2022-09-18T00:58:44.579Z,0.00
2022-09-18T00:59:44.560Z,0.00
2022-09-18T01:00:44.668Z,0.00
2022-09-18T01:01:44.675Z,0.00
2022-09-18T01:02:44.539Z,0.00
2022-09-18T01:03:44.534Z,0.00
2022-09-18T01:04:44.494Z,0.00
2022-09-18T01:05:44.491Z,0.00
2022-09-18T01:06:44.479Z,0.00
2022-09-18T01:07:44.482Z,0.00
2022-09-18T01:08:44.490Z,0.00
2022-09-18T01:09:44.439Z,0.00
2022-09-18T01:10:44.435Z,0.00
2022-09-18T01:11:44.417Z,0.00
2022-09-18T01:12:44.403Z,0.00
2022-09-18T01:13:44.438Z,0.00
2022-09-18T01:14:44.405Z,0.00
2022-09-18T01:15:44.425Z,0.00
2022-09-18T01:16:44.361Z,0.00
2022-09-18T01:17:44.408Z,0.00
2022-09-18T01:18:44.371Z,0.00
2022-09-18T01:19:44.351Z,0.00
2022-09-18T01:20:44.310Z,0.00
2022-09-18T01:21:44.312Z,0.00
2022-09-18T01:22:44.294Z,0.00
2022-09-18T01:23:44.302Z,0.00
2022-09-18T01:24:44.292Z,0.00
2022-09-18T01:25:44.272Z,0.00
2022-09-18T01:26:44.250Z,0.00
2022-09-18T01:27:44.254Z,0.00
2022-09-18T01:28:44.236Z,0.00
2022-09-18T01:29:44.245Z,0.00
2022-09-18T01:30:44.222Z,0.00
2022-09-18T01:31:44.239Z,0.00
2022-09-18T01:32:44.227Z,0.00
2022-09-18T01:33:44.243Z,0.00
2022-09-18T01:34:44.206Z,0.00
2022-09-18T01:35:44.159Z,0.00
2022-09-18T01:36:44.149Z,0.00
2022-09-18T01:37:44.176Z,0.00
2022-09-18T01:38:44.123Z,0.00
2022-09-18T01:39:44.137Z,0.00
2022-09-18T01:40:44.117Z,0.00
2022-09-18T01:41:44.089Z,0.00
2022-09-18T01:42:44.108Z,0.00
2022-09-18T01:43:44.054Z,0.00
2022-09-18T01:44:44.064Z,0.00
2022-09-18T01:45:44.084Z,0.00
2022-09-18T01:46:44.061Z,0.00
2022-09-18T01:47:44.031Z,0.00
2022-09-18T01:48:45.093Z,0.00
2022-09-18T01:49:44.083Z,0.00
2022-09-18T01:50:44.047Z,0.00
2022-09-18T01:51:43.980Z,0.00
2022-09-18T01:52:43.956Z,0.00
2022-09-18T01:53:43.954Z,0.00
2022-09-18T01:54:44.948Z,0.00
2022-09-18T01:55:43.984Z,0.00
2022-09-18T01:56:43.942Z,0.00
2022-09-18T01:57:43.937Z,0.00
2022-09-18T01:58:43.915Z,0.00
2022-09-18T01:59:43.906Z,0.00
2022-09-18T02:00:43.919Z,0.00
2022-09-18T02:01:44.104Z,0.00
2022-09-18T02:02:43.932Z,0.00
2022-09-18T02:03:43.876Z,0.00
2022-09-18T02:04:43.854Z,0.00
2022-09-18T02:05:44.021Z,0.00
2022-09-18T02:06:43.849Z,0.00
2022-09-18T02:07:43.798Z,0.00
2022-09-18T02:08:43.789Z,0.00
2022-09-18T02:09:43.774Z,0.00
2022-09-18T02:10:43.776Z,0.00
2022-09-18T02:11:43.782Z,0.00
2022-09-18T02:12:44.116Z,0.00
2022-09-18T02:13:43.713Z,0.00
2022-09-18T02:14:43.727Z,0.00
2022-09-18T02:15:43.734Z,0.00
2022-09-18T02:16:43.735Z,0.00
2022-09-18T02:17:43.690Z,0.00
2022-09-18T02:18:43.705Z,0.00
2022-09-18T02:19:43.650Z,0.00
2022-09-18T02:20:43.653Z,0.00
2022-09-18T02:21:44.034Z,0.00
2022-09-18T02:22:43.650Z,0.00
2022-09-18T02:23:43.622Z,0.00
2022-09-18T02:24:46.227Z,0.00
2022-09-18T02:25:43.605Z,0.00
2022-09-18T02:26:43.655Z,0.00
2022-09-18T02:27:43.583Z,0.00
2022-09-18T02:28:43.575Z,0.00
2022-09-18T02:29:43.573Z,0.00
2022-09-18T02:30:43.557Z,0.00
2022-09-18T02:31:43.623Z,0.00
2022-09-18T02:32:43.548Z,0.00
2022-09-18T02:33:43.498Z,0.00
2022-09-18T02:34:43.544Z,0.00
2022-09-18T02:35:43.492Z,0.00
2022-09-18T02:36:43.509Z,0.00
2022-09-18T02:37:43.567Z,0.00
2022-09-18T02:38:43.465Z,0.00
2022-09-18T02:39:43.469Z,0.00
2022-09-18T02:40:43.436Z,0.00
2022-09-18T02:41:43.449Z,0.00
2022-09-18T02:42:43.456Z,0.00
2022-09-18T02:43:43.418Z,0.00
2022-09-18T02:44:43.421Z,0.00
2022-09-18T02:45:43.391Z,0.00
2022-09-18T02:46:43.451Z,0.00
2022-09-18T02:47:43.417Z,0.00
2022-09-18T02:48:43.356Z,0.00
2022-09-18T02:49:43.353Z,0.00
2022-09-18T02:50:43.329Z,0.00
2022-09-18T02:51:43.347Z,0.00
2022-09-18T02:52:43.344Z,0.00
2022-09-18T02:53:44.382Z,0.00
2022-09-18T02:54:43.292Z,0.00
2022-09-18T02:55:43.265Z,0.00
2022-09-18T02:56:43.294Z,0.00
2022-09-18T02:57:43.283Z,0.00
2022-09-18T02:58:43.254Z,0.00
2022-09-18T02:59:43.235Z,0.00
2022-09-18T03:00:43.227Z,0.00
2022-09-18T03:01:43.356Z,0.00
2022-09-18T03:02:43.252Z,0.00
2022-09-18T03:03:43.212Z,0.00
2022-09-18T03:04:43.181Z,0.00
2022-09-18T03:05:43.178Z,0.00
2022-09-18T03:06:43.164Z,0.00
2022-09-18T03:07:43.804Z,0.00
2022-09-18T03:08:43.145Z,0.00
2022-09-18T03:09:43.205Z,0.00
2022-09-18T03:10:43.122Z,0.00
2022-09-18T03:11:43.099Z,0.00
2022-09-18T03:12:43.106Z,0.00
2022-09-18T03:13:43.077Z,0.00
2022-09-18T03:14:43.059Z,0.00
2022-09-18T03:15:43.121Z,0.00
2022-09-18T03:16:43.618Z,0.00
2022-09-18T03:17:43.056Z,0.00
2022-09-18T03:18:43.000Z,0.00
2022-09-18T03:19:43.013Z,0.00
2022-09-18T03:20:42.989Z,0.00
2022-09-18T03:21:42.984Z,0.00
2022-09-18T03:22:42.985Z,0.00
2022-09-18T03:23:45.557Z,0.00
2022-09-18T03:24:42.961Z,0.00
2022-09-18T03:25:43.021Z,0.00
2022-09-18T03:26:43.930Z,0.00
2022-09-18T03:27:42.943Z,0.00
2022-09-18T03:28:42.907Z,0.00
2022-09-18T03:29:42.894Z,0.00
2022-09-18T03:30:42.895Z,0.00
2022-09-18T03:31:42.888Z,0.00
2022-09-18T03:32:42.914Z,0.00
2022-09-18T03:33:42.843Z,0.00
2022-09-18T03:34:42.840Z,0.00
2022-09-18T03:35:42.819Z,0.00
2022-09-18T03:36:42.806Z,0.00
2022-09-18T03:37:42.798Z,0.00
2022-09-18T03:38:42.831Z,0.00
2022-09-18T03:39:42.780Z,0.00
2022-09-18T03:40:47.169Z,0.00
2022-09-18T03:41:42.856Z,0.00
2022-09-18T03:42:42.738Z,0.00
2022-09-18T03:43:43.746Z,0.00
2022-09-18T03:44:42.739Z,0.00
2022-09-18T03:45:42.710Z,0.00
2022-09-18T03:46:42.768Z,0.00
2022-09-18T03:47:42.700Z,0.00
2022-09-18T03:48:42.731Z,0.00
2022-09-18T03:49:42.669Z,0.00
2022-09-18T03:50:42.661Z,0.00
2022-09-18T03:51:42.640Z,0.00
2022-09-18T03:52:42.636Z,0.00
2022-09-18T03:53:42.664Z,0.00
2022-09-18T03:54:42.626Z,0.00
2022-09-18T03:55:42.606Z,0.00
2022-09-18T03:56:42.594Z,0.00
2022-09-18T03:57:42.667Z,0.00
2022-09-18T03:58:42.580Z,0.00
2022-09-18T03:59:42.577Z,0.00
2022-09-18T04:00:42.535Z,0.00
2022-09-18T04:01:42.589Z,0.00
2022-09-18T04:02:42.602Z,0.00
2022-09-18T04:03:42.517Z,0.00
2022-09-18T04:04:42.533Z,0.00
2022-09-18T04:05:42.508Z,0.00
2022-09-18T04:06:42.497Z,0.00
2022-09-18T04:07:42.488Z,0.00
2022-09-18T04:08:42.466Z,0.00
2022-09-18T04:09:42.494Z,0.00
2022-09-18T04:10:42.472Z,0.00
2022-09-18T04:11:42.442Z,0.00
2022-09-18T04:12:42.422Z,0.00
2022-09-18T04:13:42.488Z,0.00
2022-09-18T04:14:42.458Z,0.00
2022-09-18T04:15:42.413Z,0.00
2022-09-18T04:16:42.385Z,0.00
2022-09-18T04:17:42.400Z,0.00
2022-09-18T04:18:42.353Z,0.00
2022-09-18T04:19:42.345Z,0.00
2022-09-18T04:20:42.345Z,0.00
2022-09-18T04:21:42.314Z,0.00
2022-09-18T04:22:42.305Z,0.00
2022-09-18T04:23:42.307Z,0.00
2022-09-18T04:24:42.278Z,0.00
2022-09-18T04:25:42.297Z,0.00
2022-09-18T04:26:42.259Z,0.00
2022-09-18T04:27:42.271Z,0.00
2022-09-18T04:28:42.233Z,0.00
2022-09-18T04:29:42.293Z,0.00
2022-09-18T04:30:42.240Z,0.00
2022-09-18T04:31:42.294Z,0.00
2022-09-18T04:32:42.210Z,0.00
2022-09-18T04:33:42.168Z,0.00
2022-09-18T04:34:42.178Z,0.00
2022-09-18T04:35:42.198Z,0.00
2022-09-18T04:36:42.173Z,0.00
2022-09-18T04:37:42.161Z,0.00
2022-09-18T04:38:42.148Z,0.00
2022-09-18T04:39:42.155Z,0.00
2022-09-18T04:40:42.247Z,0.00
2022-09-18T04:41:42.109Z,0.00
2022-09-18T04:42:42.075Z,0.00
2022-09-18T04:43:42.070Z,4.00
2022-09-18T04:44:42.067Z,0.00
2022-09-18T04:45:42.127Z,4.00
2022-09-18T04:46:42.098Z,0.00
2022-09-18T04:47:42.020Z,4.00
2022-09-18T04:48:42.032Z,4.00
2022-09-18T04:49:42.023Z,4.00
2022-09-18T04:50:42.007Z,4.00
2022-09-18T04:51:43.370Z,4.00
2022-09-18T04:52:41.977Z,8.00
2022-09-18T04:53:41.980Z,8.00
2022-09-18T04:54:41.982Z,8.00
2022-09-18T04:55:41.949Z,12.00
2022-09-18T04:56:41.967Z,12.00
2022-09-18T04:57:41.928Z,16.00
2022-09-18T04:58:41.911Z,20.00
2022-09-18T04:59:41.888Z,20.00
2022-09-18T05:00:42.086Z,24.00
2022-09-18T05:01:42.009Z,28.00
2022-09-18T05:02:41.892Z,32.00
2022-09-18T05:03:41.870Z,28.00
2022-09-18T05:04:41.836Z,36.00
2022-09-18T05:05:41.839Z,36.00
2022-09-18T05:06:41.891Z,40.00
2022-09-18T05:07:41.814Z,40.00
2022-09-18T05:08:41.802Z,44.00
2022-09-18T05:09:41.945Z,44.00
2022-09-18T05:10:41.758Z,40.00
2022-09-18T05:11:41.782Z,40.00
2022-09-18T05:12:41.772Z,52.00
2022-09-18T05:13:41.739Z,52.00
2022-09-18T05:14:41.740Z,56.00
2022-09-18T05:15:41.773Z,64.00
2022-09-18T05:16:41.731Z,68.00
2022-09-18T05:17:41.801Z,76.00
2022-09-18T05:18:41.690Z,76.00
2022-09-18T05:19:41.691Z,80.00
2022-09-18T05:20:41.678Z,84.00
2022-09-18T05:21:41.657Z,88.00
2022-09-18T05:22:41.684Z,84.00
2022-09-18T05:23:41.761Z,76.00
2022-09-18T05:24:41.630Z,76.00
2022-09-18T05:25:42.606Z,76.00
2022-09-18T05:26:41.608Z,80.00
2022-09-18T05:27:41.643Z,92.00
2022-09-18T05:28:41.579Z,100.00
2022-09-18T05:29:41.581Z,116.00
2022-09-18T05:30:41.546Z,120.00
2022-09-18T05:31:41.652Z,128.00
2022-09-18T05:32:41.543Z,128.00
2022-09-18T05:33:41.626Z,116.00
2022-09-18T05:34:41.529Z,120.00
2022-09-18T05:35:41.502Z,144.00
2022-09-18T05:36:41.499Z,156.00
2022-09-18T05:37:41.507Z,168.00
2022-09-18T05:38:41.485Z,180.00
2022-09-18T05:39:41.444Z,180.00
2022-09-18T05:40:41.479Z,176.00
2022-09-18T05:41:41.466Z,172.00
2022-09-18T05:42:41.412Z,148.00
2022-09-18T05:43:41.501Z,124.00
2022-09-18T05:44:41.402Z,116.00
2022-09-18T05:45:41.389Z,112.00
2022-09-18T05:46:41.458Z,124.00
2022-09-18T05:47:41.363Z,136.00
2022-09-18T05:48:42.414Z,132.00
2022-09-18T05:49:41.416Z,124.00
2022-09-18T05:50:41.344Z,116.00
2022-09-18T05:51:41.326Z,120.00
2022-09-18T05:52:41.308Z,120.00
2022-09-18T05:53:41.339Z,124.00
2022-09-18T05:54:41.336Z,124.00
2022-09-18T05:55:41.267Z,136.00
2022-09-18T05:56:41.279Z,148.00
2022-09-18T05:57:41.250Z,156.00
2022-09-18T05:58:41.265Z,160.00
2022-09-18T05:59:41.277Z,164.00
2022-09-18T06:00:41.219Z,152.00
2022-09-18T06:01:44.928Z,136.00
2022-09-18T06:02:41.278Z,124.00
2022-09-18T06:03:41.206Z,124.00
2022-09-18T06:04:41.188Z,128.00
2022-09-18T06:05:41.242Z,140.00
2022-09-18T06:06:41.154Z,152.00
2022-09-18T06:07:41.134Z,160.00
2022-09-18T06:08:41.130Z,168.00
2022-09-18T06:09:41.144Z,188.00
2022-09-18T06:10:41.432Z,216.00
2022-09-18T06:11:42.115Z,228.00
2022-09-18T06:12:41.085Z,252.00
2022-09-18T06:13:41.066Z,296.00
2022-09-18T06:14:41.104Z,320.00
2022-09-18T06:15:41.053Z,324.00
2022-09-18T06:16:42.572Z,324.00
2022-09-18T06:17:41.033Z,332.00
2022-09-18T06:18:41.007Z,372.00
2022-09-18T06:19:41.041Z,412.00
2022-09-18T06:20:40.996Z,452.00
2022-09-18T06:21:41.051Z,484.00
2022-09-18T06:22:40.961Z,496.00
2022-09-18T06:23:40.999Z,468.00
2022-09-18T06:24:40.961Z,480.00
2022-09-18T06:25:40.932Z,492.00
2022-09-18T06:26:40.933Z,520.00
2022-09-18T06:27:40.906Z,544.00
2022-09-18T06:28:40.896Z,548.00
2022-09-18T06:29:40.892Z,548.00
2022-09-18T06:30:40.893Z,544.00
2022-09-18T06:31:40.957Z,528.00
2022-09-18T06:32:40.864Z,544.00
2022-09-18T06:33:40.915Z,572.00
2022-09-18T06:34:40.832Z,608.00
2022-09-18T06:35:40.837Z,640.00
2022-09-18T06:36:40.806Z,652.00
2022-09-18T06:37:40.861Z,660.00
2022-09-18T06:38:41.793Z,664.00
2022-09-18T06:39:40.766Z,660.00
2022-09-18T06:40:40.845Z,672.00
2022-09-18T06:41:40.758Z,676.00
2022-09-18T06:42:45.263Z,684.00
2022-09-18T06:43:41.725Z,700.00
2022-09-18T06:44:40.710Z,748.00
2022-09-18T06:45:40.744Z,764.00
2022-09-18T06:46:40.733Z,772.00
2022-09-18T06:47:40.673Z,764.00
2022-09-18T06:48:40.659Z,700.00
2022-09-18T06:49:41.655Z,680.00
2022-09-18T06:50:40.629Z,712.00
2022-09-18T06:51:40.645Z,744.00
2022-09-18T06:52:40.616Z,756.00
2022-09-18T06:53:40.684Z,740.00
2022-09-18T06:54:40.592Z,728.00
2022-09-18T06:55:41.579Z,700.00
2022-09-18T06:56:41.262Z,648.00
2022-09-18T06:57:40.563Z,604.00
2022-09-18T06:58:40.556Z,588.00
2022-09-18T06:59:40.547Z,588.00
2022-09-18T07:00:40.554Z,632.00
2022-09-18T07:01:40.594Z,696.00
2022-09-18T07:02:40.495Z,756.00
2022-09-18T07:03:40.491Z,824.00
2022-09-18T07:04:40.488Z,924.00
2022-09-18T07:05:41.084Z,996.00
2022-09-18T07:06:40.469Z,1036.00
2022-09-18T07:07:40.452Z,1048.00
2022-09-18T07:08:40.445Z,1032.00
2022-09-18T07:09:40.517Z,1000.00
2022-09-18T07:10:40.437Z,984.00
2022-09-18T07:11:40.425Z,956.00
2022-09-18T07:12:40.398Z,956.00
2022-09-18T07:13:40.383Z,956.00
2022-09-18T07:14:40.377Z,996.00
2022-09-18T07:15:40.374Z,1068.00
2022-09-18T07:16:40.415Z,1100.00
2022-09-18T07:17:40.333Z,1136.00
2022-09-18T07:18:40.336Z,1200.00
2022-09-18T07:19:40.316Z,1184.00
2022-09-18T07:20:40.304Z,1160.00
2022-09-18T07:21:40.329Z,1188.00
2022-09-18T07:22:44.908Z,1188.00
2022-09-18T07:23:40.312Z,1160.00
2022-09-18T07:24:40.253Z,1140.00
2022-09-18T07:25:40.334Z,1088.00
2022-09-18T07:26:40.247Z,1024.00
2022-09-18T07:27:40.233Z,1040.00
2022-09-18T07:28:40.228Z,1072.00
2022-09-18T07:29:40.208Z,1120.00
2022-09-18T07:30:40.209Z,1184.00
2022-09-18T07:31:40.234Z,1212.00
2022-09-18T07:32:40.197Z,1236.00
2022-09-18T07:33:40.158Z,1236.00
2022-09-18T07:34:40.151Z,1304.00
2022-09-18T07:35:40.150Z,1388.00
2022-09-18T07:36:40.126Z,1476.00
2022-09-18T07:37:40.154Z,1576.00
2022-09-18T07:38:40.114Z,1684.00
2022-09-18T07:39:40.085Z,1776.00
2022-09-18T07:40:40.188Z,1824.00
2022-09-18T07:41:40.149Z,1844.00
2022-09-18T07:42:40.100Z,1816.00
2022-09-18T07:43:40.043Z,1772.00
2022-09-18T07:44:40.029Z,1772.00
2022-09-18T07:45:40.024Z,1780.00
2022-09-18T07:46:40.093Z,1764.00
2022-09-18T07:47:40.005Z,1712.00
2022-09-18T07:48:40.005Z,1608.00
2022-09-18T07:49:39.980Z,1556.00
2022-09-18T07:50:39.954Z,1492.00
2022-09-18T07:51:39.955Z,1412.00
2022-09-18T07:52:39.934Z,1372.00
2022-09-18T07:53:39.953Z,1352.00
2022-09-18T07:54:39.911Z,1300.00
2022-09-18T07:55:39.907Z,1224.00
2022-09-18T07:56:43.571Z,1196.00
2022-09-18T07:57:40.969Z,1112.00
2022-09-18T07:58:39.922Z,1036.00
2022-09-18T07:59:39.848Z,988.00
2022-09-18T08:00:39.868Z,908.00
2022-09-18T08:01:39.913Z,788.00
2022-09-18T08:02:39.923Z,704.00
2022-09-18T08:03:41.549Z,652.00
2022-09-18T08:04:39.814Z,628.00
2022-09-18T08:05:39.799Z,644.00
2022-09-18T08:06:39.770Z,708.00
2022-09-18T08:07:39.776Z,768.00
2022-09-18T08:08:39.768Z,700.00
2022-09-18T08:09:39.740Z,644.00
2022-09-18T08:10:39.836Z,656.00
2022-09-18T08:11:39.736Z,688.00
2022-09-18T08:12:39.715Z,708.00
2022-09-18T08:13:39.832Z,724.00
2022-09-18T08:14:39.691Z,712.00
2022-09-18T08:15:39.686Z,780.00
2022-09-18T08:16:39.777Z,892.00
2022-09-18T08:17:39.651Z,1048.00
2022-09-18T08:18:39.697Z,1144.00
2022-09-18T08:19:39.634Z,1280.00
2022-09-18T08:20:39.623Z,1428.00
2022-09-18T08:21:39.616Z,1540.00
2022-09-18T08:22:39.604Z,1624.00
2022-09-18T08:23:39.582Z,1788.00
2022-09-18T08:24:39.597Z,1844.00
2022-09-18T08:25:39.584Z,1860.00
2022-09-18T08:26:39.560Z,1824.00
2022-09-18T08:27:39.544Z,1796.00
2022-09-18T08:28:39.542Z,1884.00
2022-09-18T08:29:39.623Z,2040.00
2022-09-18T08:30:39.498Z,2188.00
2022-09-18T08:31:39.575Z,2216.00
2022-09-18T08:32:39.478Z,2316.00
2022-09-18T08:33:39.465Z,2492.00
2022-09-18T08:34:39.482Z,2572.00
2022-09-18T08:35:39.437Z,2696.00
2022-09-18T08:36:39.429Z,2720.00
2022-09-18T08:37:39.428Z,2732.00
2022-09-18T08:38:39.410Z,2916.00
2022-09-18T08:39:39.430Z,2956.00
2022-09-18T08:40:39.488Z,2828.00
2022-09-18T08:41:39.376Z,2644.00
2022-09-18T08:42:39.371Z,2472.00
2022-09-18T08:43:39.364Z,2360.00
2022-09-18T08:44:39.353Z,2332.00
2022-09-18T08:45:39.428Z,2212.00
2022-09-18T08:46:39.345Z,2164.00
2022-09-18T08:47:39.309Z,2012.00
2022-09-18T08:48:39.305Z,1988.00
2022-09-18T08:49:39.298Z,2204.00
2022-09-18T08:50:39.269Z,2348.00
2022-09-18T08:51:39.256Z,2148.00
2022-09-18T08:52:39.245Z,2000.00
2022-09-18T08:53:39.232Z,2012.00
2022-09-18T08:54:39.265Z,2224.00
2022-09-18T08:55:39.357Z,2540.00
2022-09-18T08:56:39.209Z,2448.00
2022-09-18T08:57:39.192Z,2436.00
2022-09-18T08:58:39.180Z,2688.00
2022-09-18T08:59:39.204Z,2964.00
2022-09-18T09:00:39.214Z,3248.00
2022-09-18T09:01:39.243Z,3120.00
2022-09-18T09:02:39.150Z,2732.00
2022-09-18T09:03:39.130Z,2336.00
2022-09-18T09:04:39.193Z,2132.00
2022-09-18T09:05:39.125Z,2028.00
2022-09-18T09:06:39.080Z,1856.00
2022-09-18T09:07:39.093Z,1800.00
2022-09-18T09:08:39.065Z,1832.00
2022-09-18T09:09:39.046Z,1700.00
2022-09-18T09:10:39.066Z,1744.00
2022-09-18T09:11:39.016Z,1940.00
2022-09-18T09:12:39.017Z,1960.00
2022-09-18T09:13:39.008Z,1876.00
2022-09-18T09:14:56.792Z,1772.00
2022-09-18T09:15:40.026Z,1816.00
2022-09-18T09:16:39.004Z,1744.00
2022-09-18T09:17:39.041Z,1544.00
2022-09-18T09:18:38.945Z,1340.00
2022-09-18T09:19:38.940Z,1176.00
2022-09-18T09:20:39.064Z,1092.00
2022-09-18T09:21:38.903Z,1032.00
2022-09-18T09:22:38.910Z,1012.00
2022-09-18T09:23:38.882Z,1024.00
2022-09-18T09:24:38.890Z,1132.00
2022-09-18T09:25:38.865Z,1284.00
2022-09-18T09:26:38.872Z,1404.00
2022-09-18T09:27:38.844Z,1420.00
2022-09-18T09:28:38.821Z,1456.00
2022-09-18T09:29:38.819Z,1552.00
2022-09-18T09:30:38.801Z,1700.00
2022-09-18T09:31:38.865Z,1896.00
2022-09-18T09:32:38.777Z,2260.00
2022-09-18T09:33:38.841Z,2484.00
2022-09-18T09:34:38.753Z,2652.00
2022-09-18T09:35:38.751Z,2892.00
2022-09-18T09:36:38.782Z,2996.00
2022-09-18T09:37:38.728Z,2708.00
2022-09-18T09:38:38.720Z,2516.00
2022-09-18T09:39:38.701Z,2520.00
2022-09-18T09:40:38.750Z,2604.00
2022-09-18T09:41:38.712Z,2584.00
2022-09-18T09:42:38.669Z,2440.00
2022-09-18T09:43:38.646Z,2460.00
2022-09-18T09:44:38.654Z,2572.00
2022-09-18T09:45:38.630Z,2536.00
2022-09-18T09:46:38.668Z,2376.00
2022-09-18T09:47:38.637Z,2076.00
2022-09-18T09:48:38.590Z,1772.00
2022-09-18T09:49:38.655Z,1624.00
2022-09-18T09:50:39.056Z,1652.00
2022-09-18T09:51:38.566Z,1716.00
2022-09-18T09:52:38.578Z,1660.00
2022-09-18T09:53:38.549Z,1688.00
2022-09-18T09:54:38.543Z,1732.00
2022-09-18T09:55:38.523Z,1644.00
2022-09-18T09:56:38.509Z,1596.00
2022-09-18T09:57:38.535Z,1696.00
2022-09-18T09:58:38.480Z,1792.00
2022-09-18T09:59:38.871Z,1860.00
2022-09-18T10:00:38.494Z,1912.00
2022-09-18T10:01:38.456Z,1912.00
2022-09-18T10:02:38.485Z,1836.00
2022-09-18T10:03:38.414Z,1720.00
2022-09-18T10:04:38.419Z,1644.00
2022-09-18T10:05:38.485Z,1536.00
2022-09-18T10:06:38.390Z,1392.00
2022-09-18T10:07:38.388Z,1200.00
2022-09-18T10:08:38.385Z,1012.00
2022-09-18T10:11:43.463Z,864.00
2022-09-18T10:12:43.568Z,876.00
2022-09-18T10:13:43.434Z,964.00
2022-09-18T10:14:43.524Z,1088.00
2022-09-18T10:15:43.367Z,1188.00
2022-09-18T10:16:43.670Z,1224.00
2022-09-18T10:17:43.299Z,1280.00
2022-09-18T10:18:43.313Z,1460.00
2022-09-18T10:19:43.274Z,1564.00
2022-09-18T10:20:43.342Z,1624.00
2022-09-18T10:21:43.257Z,1648.00
2022-09-18T10:22:43.236Z,1704.00
2022-09-18T10:23:43.227Z,1788.00
2022-09-18T10:24:43.251Z,1864.00
2022-09-18T10:25:43.203Z,1928.00
2022-09-18T10:26:43.181Z,1960.00
2022-09-18T10:27:43.178Z,1960.00
2022-09-18T10:28:43.154Z,1940.00
2022-09-18T10:29:43.221Z,1920.00
2022-09-18T10:30:43.140Z,1896.00
2022-09-18T10:31:43.165Z,1880.00
2022-09-18T10:32:43.112Z,1892.00
2022-09-18T10:33:43.105Z,1956.00
2022-09-18T10:34:43.124Z,2060.00
2022-09-18T10:35:43.120Z,2168.00
2022-09-18T10:36:43.146Z,2208.00
2022-09-18T10:37:43.056Z,2196.00
2022-09-18T10:38:43.030Z,2184.00
2022-09-18T10:39:43.049Z,2156.00
2022-09-18T10:40:43.078Z,2152.00
2022-09-18T10:41:43.003Z,2168.00
2022-09-18T10:42:42.983Z,2172.00
2022-09-18T10:43:42.993Z,2156.00
2022-09-18T10:44:42.967Z,2108.00
2022-09-18T10:45:42.978Z,1996.00
2022-09-18T10:46:42.985Z,1844.00
2022-09-18T10:47:42.926Z,1708.00
2022-09-18T10:48:42.959Z,1572.00
2022-09-18T10:49:42.904Z,1444.00
2022-09-18T10:50:42.910Z,1356.00
2022-09-18T10:51:42.877Z,1416.00
2022-09-18T10:52:42.951Z,1632.00
2022-09-18T10:53:43.448Z,1800.00
2022-09-18T10:54:42.904Z,1884.00
2022-09-18T10:55:42.922Z,1932.00
2022-09-18T10:56:42.803Z,1916.00
2022-09-18T10:57:43.504Z,1888.00
2022-09-18T10:58:42.781Z,1852.00
2022-09-18T10:59:42.791Z,1816.00
2022-09-18T11:00:42.793Z,1828.00
2022-09-18T11:01:44.982Z,1864.00
2022-09-18T11:02:42.730Z,1892.00
2022-09-18T11:03:42.729Z,1932.00
2022-09-18T11:04:42.779Z,1980.00
2022-09-18T11:05:42.745Z,2020.00
2022-09-18T11:06:42.704Z,2052.00
2022-09-18T11:07:42.742Z,2064.00
2022-09-18T11:08:42.829Z,2024.00
2022-09-18T11:09:42.655Z,2048.00
2022-09-18T11:10:42.662Z,2076.00
2022-09-18T11:11:42.648Z,2164.00
2022-09-18T11:12:42.609Z,2228.00
2022-09-18T11:13:42.654Z,2220.00
2022-09-18T11:14:42.634Z,2200.00
2022-09-18T11:15:42.575Z,2332.00
2022-09-18T11:16:42.684Z,2504.00
2022-09-18T11:17:42.547Z,2408.00
2022-09-18T11:18:42.527Z,2272.00
2022-09-18T11:19:42.529Z,2308.00
2022-09-18T11:20:42.795Z,2332.00
2022-09-18T11:21:42.706Z,2196.00
2022-09-18T11:22:42.569Z,2032.00
2022-09-18T11:23:42.506Z,1964.00
2022-09-18T11:24:47.206Z,2056.00
2022-09-18T11:25:43.577Z,2060.00
2022-09-18T11:26:42.425Z,1992.00
2022-09-18T11:27:42.449Z,1968.00
2022-09-18T11:28:42.490Z,1960.00
2022-09-18T11:29:42.450Z,1932.00
2022-09-18T11:30:42.432Z,2080.00
2022-09-18T11:31:42.516Z,2132.00
2022-09-18T11:32:42.503Z,2212.00
2022-09-18T11:33:42.357Z,2204.00
2022-09-18T11:34:42.329Z,2212.00
2022-09-18T11:35:42.383Z,2128.00
2022-09-18T11:36:42.310Z,1956.00
2022-09-18T11:37:42.391Z,1796.00
2022-09-18T11:38:42.298Z,1656.00
2022-09-18T11:39:42.275Z,1540.00
2022-09-18T11:40:42.436Z,1480.00
2022-09-18T11:41:42.289Z,1456.00
2022-09-18T11:42:42.232Z,1388.00
2022-09-18T11:43:42.261Z,1248.00
2022-09-18T11:44:42.206Z,1208.00
2022-09-18T11:45:42.209Z,1120.00
2022-09-18T11:46:42.340Z,1012.00
2022-09-18T11:47:42.223Z,892.00
2022-09-18T11:48:42.179Z,820.00
2022-09-18T11:49:42.245Z,808.00
2022-09-18T11:50:42.139Z,848.00
2022-09-18T11:51:42.129Z,828.00
2022-09-18T11:52:42.141Z,816.00
2022-09-18T11:53:42.126Z,760.00
2022-09-18T11:54:42.093Z,720.00
2022-09-18T11:55:42.083Z,688.00
2022-09-18T11:56:42.148Z,616.00
2022-09-18T11:57:43.263Z,596.00
2022-09-18T11:58:43.202Z,660.00
2022-09-18T11:59:43.204Z,924.00
2022-09-18T12:00:43.178Z,1124.00
2022-09-18T12:01:43.185Z,1160.00
2022-09-18T12:02:43.286Z,1128.00
2022-09-18T12:03:43.614Z,1104.00
2022-09-18T12:04:43.122Z,1052.00
2022-09-18T12:05:43.142Z,1048.00
2022-09-18T12:06:43.125Z,1104.00
2022-09-18T12:07:42.653Z,1184.00
2022-09-18T12:08:41.815Z,1272.00
2022-09-18T12:09:41.723Z,1348.00
2022-09-18T12:10:41.706Z,1404.00
2022-09-18T12:11:41.699Z,1600.00
2022-09-18T12:12:41.747Z,1724.00
2022-09-18T12:13:41.708Z,1772.00
2022-09-18T12:14:41.698Z,1788.00
2022-09-18T12:15:41.675Z,1764.00
2022-09-18T12:16:41.697Z,1724.00
2022-09-18T12:17:41.620Z,1708.00
2022-09-18T12:18:41.637Z,1736.00
2022-09-18T12:19:41.627Z,1704.00
2022-09-18T12:20:41.603Z,1648.00
2022-09-18T12:21:41.552Z,1568.00
2022-09-18T12:22:41.549Z,1504.00
2022-09-18T12:23:41.533Z,1444.00
2022-09-18T12:24:41.565Z,1420.00
2022-09-18T12:25:41.544Z,1372.00
2022-09-18T12:26:41.509Z,1336.00
2022-09-18T12:27:41.588Z,1292.00
2022-09-18T12:28:41.563Z,1276.00
2022-09-18T12:29:41.488Z,1240.00
2022-09-18T12:30:41.517Z,1208.00
2022-09-18T12:31:41.487Z,1216.00
2022-09-18T12:32:41.425Z,1160.00
2022-09-18T12:33:41.447Z,1140.00
2022-09-18T12:34:41.458Z,1032.00
2022-09-18T12:35:41.389Z,956.00
2022-09-18T12:36:41.422Z,1004.00
2022-09-18T12:37:41.361Z,1024.00
2022-09-18T12:38:41.371Z,964.00
2022-09-18T12:39:42.070Z,848.00
2022-09-18T12:40:42.004Z,916.00